sensor_id;sensor_type;location;lat;lon;timestamp;pressure;altitude;pressure_sealevel;temperature;humidity
74466;BME280;62916;50.044;15.938;2023-12-20T00:01:55;98735.84;;;18.61;50.89
74466;BME280;62916;50.044;15.938;2023-12-20T00:04:26;98742.22;;;18.59;50.97
74466;BME280;62916;50.044;15.938;2023-12-20T00:06:57;98734.95;;;18.57;51.02
74466;BME280;62916;50.044;15.938;2023-12-20T00:09:28;98742.45;;;18.55;51.10
74466;BME280;62916;50.044;15.938;2023-12-20T00:11:59;98737.21;;;18.53;51.08
74466;BME280;62916;50.044;15.938;2023-12-20T00:14:29;98745.17;;;18.52;51.08
74466;BME280;62916;50.044;15.938;2023-12-20T00:17:00;98745.45;;;18.50;51.01
74466;BME280;62916;50.044;15.938;2023-12-20T00:19:31;98741.73;;;18.48;51.16
74466;BME280;62916;50.044;15.938;2023-12-20T00:22:02;98730.30;;;18.46;51.21
74466;BME280;62916;50.044;15.938;2023-12-20T00:24:33;98725.38;;;18.46;51.26
74466;BME280;62916;50.044;15.938;2023-12-20T00:27:05;98721.02;;;18.44;51.38
74466;BME280;62916;50.044;15.938;2023-12-20T00:29:36;98725.38;;;18.43;51.32
74466;BME280;62916;50.044;15.938;2023-12-20T00:32:07;98728.82;;;18.43;51.35
74466;BME280;62916;50.044;15.938;2023-12-20T00:34:38;98729.30;;;18.41;51.32
74466;BME280;62916;50.044;15.938;2023-12-20T00:37:09;98731.75;;;18.40;51.40
74466;BME280;62916;50.044;15.938;2023-12-20T00:39:40;98720.20;;;18.39;51.40
74466;BME280;62916;50.044;15.938;2023-12-20T00:42:12;98722.48;;;18.37;51.40
74466;BME280;62916;50.044;15.938;2023-12-20T00:44:42;98717.39;;;18.36;51.42
74466;BME280;62916;50.044;15.938;2023-12-20T00:47:13;98715.92;;;18.34;51.41
74466;BME280;62916;50.044;15.938;2023-12-20T00:49:44;98716.30;;;18.32;51.43
74466;BME280;62916;50.044;15.938;2023-12-20T00:52:15;98715.01;;;18.31;51.52
74466;BME280;62916;50.044;15.938;2023-12-20T00:54:47;98710.60;;;18.29;51.57
74466;BME280;62916;50.044;15.938;2023-12-20T00:57:18;98708.73;;;18.27;51.61
74466;BME280;62916;50.044;15.938;2023-12-20T00:59:48;98703.75;;;18.26;51.62
74466;BME280;62916;50.044;15.938;2023-12-20T01:02:19;98697.73;;;18.24;51.71
74466;BME280;62916;50.044;15.938;2023-12-20T01:04:50;98699.32;;;18.23;51.72
74466;BME280;62916;50.044;15.938;2023-12-20T01:07:21;98697.84;;;18.22;51.65
74466;BME280;62916;50.044;15.938;2023-12-20T01:09:52;98700.70;;;18.20;51.74
74466;BME280;62916;50.044;15.938;2023-12-20T01:12:23;98703.13;;;18.19;51.76
74466;BME280;62916;50.044;15.938;2023-12-20T01:14:55;98711.64;;;18.18;51.73
74466;BME280;62916;50.044;15.938;2023-12-20T01:17:25;98705.15;;;18.17;51.72
74466;BME280;62916;50.044;15.938;2023-12-20T01:19:56;98693.71;;;18.16;51.78
74466;BME280;62916;50.044;15.938;2023-12-20T01:22:27;98693.96;;;18.15;51.87
74466;BME280;62916;50.044;15.938;2023-12-20T01:24:58;98693.25;;;18.14;51.87
74466;BME280;62916;50.044;15.938;2023-12-20T01:27:29;98693.18;;;18.12;52.00
74466;BME280;62916;50.044;15.938;2023-12-20T01:30:00;98694.13;;;18.11;51.92
74466;BME280;62916;50.044;15.938;2023-12-20T01:32:31;98693.53;;;18.10;52.01
74466;BME280;62916;50.044;15.938;2023-12-20T01:35:02;98691.20;;;18.08;52.11
74466;BME280;62916;50.044;15.938;2023-12-20T01:37:33;98682.11;;;18.08;52.06
74466;BME280;62916;50.044;15.938;2023-12-20T01:40:06;98686.27;;;18.08;52.15
74466;BME280;62916;50.044;15.938;2023-12-20T01:42:37;98683.88;;;18.07;52.21
74466;BME280;62916;50.044;15.938;2023-12-20T01:45:09;98683.84;;;18.06;52.30
74466;BME280;62916;50.044;15.938;2023-12-20T01:47:40;98676.20;;;18.06;52.24
74466;BME280;62916;50.044;15.938;2023-12-20T01:50:11;98676.48;;;18.06;52.37
74466;BME280;62916;50.044;15.938;2023-12-20T01:52:43;98671.95;;;18.06;52.10
74466;BME280;62916;50.044;15.938;2023-12-20T01:55:15;98672.51;;;18.06;52.27
74466;BME280;62916;50.044;15.938;2023-12-20T01:57:46;98669.89;;;18.05;52.33
74466;BME280;62916;50.044;15.938;2023-12-20T02:00:19;98661.95;;;18.03;52.25
74466;BME280;62916;50.044;15.938;2023-12-20T02:02:54;98645.73;;;18.02;52.34
74466;BME280;62916;50.044;15.938;2023-12-20T02:05:25;98641.30;;;18.02;52.41
74466;BME280;62916;50.044;15.938;2023-12-20T02:07:57;98634.58;;;18.02;52.33
74466;BME280;62916;50.044;15.938;2023-12-20T02:10:28;98627.80;;;18.02;52.39
74466;BME280;62916;50.044;15.938;2023-12-20T02:13:00;98612.75;;;18.00;52.32
74466;BME280;62916;50.044;15.938;2023-12-20T02:15:31;98606.49;;;17.99;52.38
74466;BME280;62916;50.044;15.938;2023-12-20T02:18:02;98606.13;;;17.98;52.33
74466;BME280;62916;50.044;15.938;2023-12-20T02:20:33;98604.50;;;17.98;52.36
74466;BME280;62916;50.044;15.938;2023-12-20T02:23:05;98602.67;;;17.96;52.31
74466;BME280;62916;50.044;15.938;2023-12-20T02:25:36;98599.95;;;17.95;52.30
74466;BME280;62916;50.044;15.938;2023-12-20T02:28:07;98605.88;;;17.94;52.36
74466;BME280;62916;50.044;15.938;2023-12-20T02:30:38;98603.48;;;17.93;52.46
74466;BME280;62916;50.044;15.938;2023-12-20T02:33:12;98610.08;;;17.91;52.33
74466;BME280;62916;50.044;15.938;2023-12-20T02:35:44;98612.26;;;17.90;52.45
74466;BME280;62916;50.044;15.938;2023-12-20T02:38:15;98611.43;;;17.90;52.45
74466;BME280;62916;50.044;15.938;2023-12-20T02:40:46;98613.46;;;17.89;52.48
74466;BME280;62916;50.044;15.938;2023-12-20T02:43:18;98610.84;;;17.88;52.40
74466;BME280;62916;50.044;15.938;2023-12-20T02:45:49;98607.73;;;17.87;52.48
74466;BME280;62916;50.044;15.938;2023-12-20T02:48:20;98603.88;;;17.85;52.46
74466;BME280;62916;50.044;15.938;2023-12-20T02:50:52;98599.64;;;17.84;52.51
74466;BME280;62916;50.044;15.938;2023-12-20T02:53:23;98598.60;;;17.83;52.47
74466;BME280;62916;50.044;15.938;2023-12-20T02:55:54;98598.55;;;17.82;52.52
74466;BME280;62916;50.044;15.938;2023-12-20T02:58:25;98594.49;;;17.81;52.52
74466;BME280;62916;50.044;15.938;2023-12-20T03:00:56;98590.83;;;17.80;52.46
74466;BME280;62916;50.044;15.938;2023-12-20T03:03:27;98589.23;;;17.78;52.55
74466;BME280;62916;50.044;15.938;2023-12-20T03:05:58;98591.60;;;17.78;52.55
74466;BME280;62916;50.044;15.938;2023-12-20T03:08:29;98593.25;;;17.77;52.51
74466;BME280;62916;50.044;15.938;2023-12-20T03:11:01;98594.52;;;17.76;52.56
74466;BME280;62916;50.044;15.938;2023-12-20T03:13:32;98592.79;;;17.75;52.59
74466;BME280;62916;50.044;15.938;2023-12-20T03:16:09;98592.57;;;17.74;52.62
74466;BME280;62916;50.044;15.938;2023-12-20T03:18:40;98596.75;;;17.73;52.58
74466;BME280;62916;50.044;15.938;2023-12-20T03:21:11;98591.27;;;17.72;52.65
74466;BME280;62916;50.044;15.938;2023-12-20T03:23:43;98586.02;;;17.72;52.65
74466;BME280;62916;50.044;15.938;2023-12-20T03:26:13;98585.38;;;17.70;52.79
74466;BME280;62916;50.044;15.938;2023-12-20T03:28:44;98589.29;;;17.70;52.67
74466;BME280;62916;50.044;15.938;2023-12-20T03:31:15;98594.59;;;17.70;52.73
74466;BME280;62916;50.044;15.938;2023-12-20T03:33:46;98588.81;;;17.70;52.79
74466;BME280;62916;50.044;15.938;2023-12-20T03:36:18;98592.98;;;17.70;52.70
74466;BME280;62916;50.044;15.938;2023-12-20T03:38:49;98592.21;;;17.69;52.72
74466;BME280;62916;50.044;15.938;2023-12-20T03:41:19;98590.98;;;17.69;52.75
74466;BME280;62916;50.044;15.938;2023-12-20T03:43:51;98591.10;;;17.68;52.72
74466;BME280;62916;50.044;15.938;2023-12-20T03:46:22;98592.02;;;17.67;52.75
74466;BME280;62916;50.044;15.938;2023-12-20T03:48:53;98588.38;;;17.66;52.87
74466;BME280;62916;50.044;15.938;2023-12-20T03:51:24;98586.23;;;17.65;52.81
74466;BME280;62916;50.044;15.938;2023-12-20T03:53:54;98586.56;;;17.64;52.87
74466;BME280;62916;50.044;15.938;2023-12-20T03:56:25;98590.00;;;17.63;52.86
74466;BME280;62916;50.044;15.938;2023-12-20T03:58:56;98588.50;;;17.62;52.83
74466;BME280;62916;50.044;15.938;2023-12-20T04:01:27;98587.63;;;17.61;52.80
74466;BME280;62916;50.044;15.938;2023-12-20T04:03:58;98584.79;;;17.60;52.90
74466;BME280;62916;50.044;15.938;2023-12-20T04:06:29;98580.77;;;17.59;52.87
74466;BME280;62916;50.044;15.938;2023-12-20T04:09:00;98580.56;;;17.59;52.93
74466;BME280;62916;50.044;15.938;2023-12-20T04:11:31;98583.13;;;17.59;52.95
74466;BME280;62916;50.044;15.938;2023-12-20T04:14:01;98579.27;;;17.59;52.85
74466;BME280;62916;50.044;15.938;2023-12-20T04:16:34;98579.44;;;17.56;52.79
74466;BME280;62916;50.044;15.938;2023-12-20T04:19:05;98581.39;;;17.57;52.92
74466;BME280;62916;50.044;15.938;2023-12-20T04:21:36;98580.22;;;17.56;52.88
74466;BME280;62916;50.044;15.938;2023-12-20T04:24:08;98579.23;;;17.54;52.91
74466;BME280;62916;50.044;15.938;2023-12-20T04:26:39;98581.27;;;17.54;53.04
74466;BME280;62916;50.044;15.938;2023-12-20T04:29:10;98588.73;;;17.54;52.99
74466;BME280;62916;50.044;15.938;2023-12-20T04:31:41;98585.96;;;17.52;53.03
74466;BME280;62916;50.044;15.938;2023-12-20T04:34:12;98585.48;;;17.51;53.16
74466;BME280;62916;50.044;15.938;2023-12-20T04:36:42;98588.58;;;17.51;53.09
74466;BME280;62916;50.044;15.938;2023-12-20T04:39:14;98581.38;;;17.50;53.16
74466;BME280;62916;50.044;15.938;2023-12-20T04:41:46;98579.33;;;17.49;53.13
74466;BME280;62916;50.044;15.938;2023-12-20T04:44:17;98582.25;;;17.48;53.20
74466;BME280;62916;50.044;15.938;2023-12-20T04:46:48;98581.98;;;17.47;53.01
74466;BME280;62916;50.044;15.938;2023-12-20T04:49:18;98582.95;;;17.46;53.26
74466;BME280;62916;50.044;15.938;2023-12-20T04:51:50;98581.00;;;17.46;53.17
74466;BME280;62916;50.044;15.938;2023-12-20T04:54:21;98582.30;;;17.45;53.31
74466;BME280;62916;50.044;15.938;2023-12-20T04:56:52;98578.40;;;17.44;53.23
74466;BME280;62916;50.044;15.938;2023-12-20T04:59:23;98583.63;;;17.43;53.13
74466;BME280;62916;50.044;15.938;2023-12-20T05:01:54;98583.88;;;17.42;53.23
74466;BME280;62916;50.044;15.938;2023-12-20T05:04:25;98580.91;;;17.42;53.15
74466;BME280;62916;50.044;15.938;2023-12-20T05:06:56;98580.27;;;17.40;53.24
74466;BME280;62916;50.044;15.938;2023-12-20T05:09:27;98580.05;;;17.41;53.33
74466;BME280;62916;50.044;15.938;2023-12-20T05:11:58;98583.46;;;17.40;53.49
74466;BME280;62916;50.044;15.938;2023-12-20T05:14:30;98585.21;;;17.40;53.36
74466;BME280;62916;50.044;15.938;2023-12-20T05:17:01;98586.90;;;17.40;53.43
74466;BME280;62916;50.044;15.938;2023-12-20T05:19:32;98589.95;;;17.40;53.36
74466;BME280;62916;50.044;15.938;2023-12-20T05:22:05;98594.88;;;17.40;53.32
74466;BME280;62916;50.044;15.938;2023-12-20T05:24:36;98595.41;;;17.39;53.40
74466;BME280;62916;50.044;15.938;2023-12-20T05:27:07;98598.73;;;17.38;53.29
74466;BME280;62916;50.044;15.938;2023-12-20T05:29:38;98596.84;;;17.37;53.23
74466;BME280;62916;50.044;15.938;2023-12-20T05:32:09;98599.83;;;17.36;53.40
74466;BME280;62916;50.044;15.938;2023-12-20T05:34:40;98600.90;;;17.36;53.34
74466;BME280;62916;50.044;15.938;2023-12-20T05:37:11;98606.25;;;17.34;53.44
74466;BME280;62916;50.044;15.938;2023-12-20T05:39:42;98605.75;;;17.34;53.43
74466;BME280;62916;50.044;15.938;2023-12-20T05:42:13;98611.81;;;17.33;53.40
74466;BME280;62916;50.044;15.938;2023-12-20T05:44:44;98613.34;;;17.32;53.35
74466;BME280;62916;50.044;15.938;2023-12-20T05:47:15;98613.41;;;17.32;53.40
74466;BME280;62916;50.044;15.938;2023-12-20T05:49:46;98612.67;;;17.32;53.47
74466;BME280;62916;50.044;15.938;2023-12-20T05:52:17;98616.60;;;17.32;53.49
74466;BME280;62916;50.044;15.938;2023-12-20T05:54:48;98620.42;;;17.31;53.43
74466;BME280;62916;50.044;15.938;2023-12-20T05:57:19;98619.60;;;17.31;53.33
74466;BME280;62916;50.044;15.938;2023-12-20T05:59:50;98614.05;;;17.30;53.38
74466;BME280;62916;50.044;15.938;2023-12-20T06:02:21;98614.84;;;17.30;53.48
74466;BME280;62916;50.044;15.938;2023-12-20T06:04:52;98614.33;;;17.31;53.38
74466;BME280;62916;50.044;15.938;2023-12-20T06:07:24;98614.45;;;17.30;53.40
74466;BME280;62916;50.044;15.938;2023-12-20T06:09:55;98612.91;;;17.30;53.42
74466;BME280;62916;50.044;15.938;2023-12-20T06:12:27;98610.85;;;17.28;53.41
74466;BME280;62916;50.044;15.938;2023-12-20T06:14:58;98607.90;;;17.27;53.46
74466;BME280;62916;50.044;15.938;2023-12-20T06:17:29;98604.42;;;17.28;53.55
74466;BME280;62916;50.044;15.938;2023-12-20T06:20:01;98605.38;;;17.28;53.43
74466;BME280;62916;50.044;15.938;2023-12-20T06:22:32;98611.21;;;17.24;52.88
74466;BME280;62916;50.044;15.938;2023-12-20T06:25:04;98612.96;;;17.18;52.42
74466;BME280;62916;50.044;15.938;2023-12-20T06:27:36;98616.00;;;17.15;52.45
74466;BME280;62916;50.044;15.938;2023-12-20T06:30:11;98614.06;;;17.13;52.47
74466;BME280;62916;50.044;15.938;2023-12-20T06:32:42;98614.16;;;17.13;52.61
74466;BME280;62916;50.044;15.938;2023-12-20T06:35:13;98618.55;;;17.13;52.47
74466;BME280;62916;50.044;15.938;2023-12-20T06:37:44;98617.44;;;17.13;52.66
74466;BME280;62916;50.044;15.938;2023-12-20T06:40:16;98616.98;;;17.13;52.75
74466;BME280;62916;50.044;15.938;2023-12-20T06:42:47;98615.89;;;17.14;52.72
74466;BME280;62916;50.044;15.938;2023-12-20T06:45:33;98614.77;;;17.14;52.72
74466;BME280;62916;50.044;15.938;2023-12-20T06:48:05;98612.97;;;17.15;52.77
74466;BME280;62916;50.044;15.938;2023-12-20T06:50:36;98613.20;;;17.14;52.67
74466;BME280;62916;50.044;15.938;2023-12-20T06:53:09;98615.55;;;17.15;52.83
74466;BME280;62916;50.044;15.938;2023-12-20T06:55:40;98617.40;;;17.15;52.93
74466;BME280;62916;50.044;15.938;2023-12-20T06:58:11;98626.20;;;17.15;52.84
74466;BME280;62916;50.044;15.938;2023-12-20T07:00:42;98623.56;;;17.15;52.99
74466;BME280;62916;50.044;15.938;2023-12-20T07:03:13;98621.60;;;17.14;53.00
74466;BME280;62916;50.044;15.938;2023-12-20T07:05:45;98627.99;;;17.14;53.11
74466;BME280;62916;50.044;15.938;2023-12-20T07:08:15;98626.32;;;17.14;53.19
74466;BME280;62916;50.044;15.938;2023-12-20T07:10:47;98632.65;;;17.14;53.04
74466;BME280;62916;50.044;15.938;2023-12-20T07:13:18;98638.54;;;17.14;53.17
74466;BME280;62916;50.044;15.938;2023-12-20T07:15:50;98641.02;;;17.13;53.14
74466;BME280;62916;50.044;15.938;2023-12-20T07:18:21;98643.16;;;17.12;53.17
74466;BME280;62916;50.044;15.938;2023-12-20T07:20:52;98652.26;;;17.12;53.16
74466;BME280;62916;50.044;15.938;2023-12-20T07:23:24;98658.87;;;17.11;53.18
74466;BME280;62916;50.044;15.938;2023-12-20T07:25:56;98661.38;;;17.10;53.32
74466;BME280;62916;50.044;15.938;2023-12-20T07:28:26;98664.40;;;17.10;53.37
74466;BME280;62916;50.044;15.938;2023-12-20T07:30:57;98669.02;;;17.11;53.47
74466;BME280;62916;50.044;15.938;2023-12-20T07:33:29;98667.02;;;17.11;53.35
74466;BME280;62916;50.044;15.938;2023-12-20T07:36:09;98677.36;;;17.11;53.48
74466;BME280;62916;50.044;15.938;2023-12-20T07:38:39;98682.45;;;17.12;53.47
74466;BME280;62916;50.044;15.938;2023-12-20T07:41:12;98679.95;;;17.11;53.41
74466;BME280;62916;50.044;15.938;2023-12-20T07:43:43;98685.14;;;17.11;53.53
74466;BME280;62916;50.044;15.938;2023-12-20T07:46:14;98683.73;;;17.12;53.60
74466;BME280;62916;50.044;15.938;2023-12-20T07:48:45;98687.89;;;17.12;53.50
74466;BME280;62916;50.044;15.938;2023-12-20T07:51:16;98687.06;;;17.11;53.62
74466;BME280;62916;50.044;15.938;2023-12-20T07:53:47;98692.95;;;17.11;53.57
74466;BME280;62916;50.044;15.938;2023-12-20T07:56:19;98693.81;;;17.10;53.51
74466;BME280;62916;50.044;15.938;2023-12-20T07:58:50;98691.53;;;17.10;53.60
74466;BME280;62916;50.044;15.938;2023-12-20T08:01:23;98693.90;;;17.09;53.69
74466;BME280;62916;50.044;15.938;2023-12-20T08:03:54;98698.61;;;17.09;53.58
74466;BME280;62916;50.044;15.938;2023-12-20T08:06:25;98699.44;;;17.07;53.63
74466;BME280;62916;50.044;15.938;2023-12-20T08:08:56;98701.54;;;17.08;53.82
74466;BME280;62916;50.044;15.938;2023-12-20T08:11:35;98701.29;;;17.09;53.89
74466;BME280;62916;50.044;15.938;2023-12-20T08:14:06;98700.77;;;17.10;53.82
74466;BME280;62916;50.044;15.938;2023-12-20T08:16:38;98706.50;;;17.10;53.89
74466;BME280;62916;50.044;15.938;2023-12-20T08:19:09;98704.55;;;17.09;53.87
74466;BME280;62916;50.044;15.938;2023-12-20T08:21:40;98709.71;;;17.08;53.79
74466;BME280;62916;50.044;15.938;2023-12-20T08:24:11;98714.17;;;17.10;53.88
74466;BME280;62916;50.044;15.938;2023-12-20T08:26:42;98704.67;;;17.08;53.81
74466;BME280;62916;50.044;15.938;2023-12-20T08:29:15;98698.61;;;17.09;53.74
74466;BME280;62916;50.044;15.938;2023-12-20T08:31:46;98701.32;;;17.08;53.74
74466;BME280;62916;50.044;15.938;2023-12-20T08:34:17;98707.71;;;17.10;53.73
74466;BME280;62916;50.044;15.938;2023-12-20T08:36:48;98708.69;;;17.09;53.59
74466;BME280;62916;50.044;15.938;2023-12-20T08:39:19;98712.52;;;17.10;53.59
74466;BME280;62916;50.044;15.938;2023-12-20T08:41:50;98712.38;;;17.10;53.61
74466;BME280;62916;50.044;15.938;2023-12-20T08:44:21;98718.63;;;17.10;53.56
74466;BME280;62916;50.044;15.938;2023-12-20T08:46:53;98723.06;;;17.13;53.49
74466;BME280;62916;50.044;15.938;2023-12-20T08:49:26;98718.04;;;17.15;53.42
74466;BME280;62916;50.044;15.938;2023-12-20T08:51:58;98720.70;;;17.18;53.31
74466;BME280;62916;50.044;15.938;2023-12-20T08:54:29;98716.33;;;17.20;53.40
74466;BME280;62916;50.044;15.938;2023-12-20T08:57:00;98719.31;;;17.22;53.38
74466;BME280;62916;50.044;15.938;2023-12-20T08:59:31;98725.91;;;17.26;53.61
74466;BME280;62916;50.044;15.938;2023-12-20T09:02:02;98728.58;;;17.29;53.40
74466;BME280;62916;50.044;15.938;2023-12-20T09:04:34;98729.84;;;17.32;53.32
74466;BME280;62916;50.044;15.938;2023-12-20T09:07:05;98733.72;;;17.35;53.36
74466;BME280;62916;50.044;15.938;2023-12-20T09:09:37;98736.59;;;17.37;53.49
74466;BME280;62916;50.044;15.938;2023-12-20T09:12:10;98735.45;;;17.41;53.52
74466;BME280;62916;50.044;15.938;2023-12-20T09:14:41;98727.42;;;17.45;53.57
74466;BME280;62916;50.044;15.938;2023-12-20T09:17:13;98725.13;;;17.47;53.40
74466;BME280;62916;50.044;15.938;2023-12-20T09:19:45;98732.84;;;17.51;53.47
74466;BME280;62916;50.044;15.938;2023-12-20T09:25:05;98730.94;;;17.58;53.51
74466;BME280;62916;50.044;15.938;2023-12-20T09:27:36;98740.83;;;17.62;53.33
74466;BME280;62916;50.044;15.938;2023-12-20T09:30:09;98742.86;;;17.66;53.41
74466;BME280;62916;50.044;15.938;2023-12-20T09:32:40;98739.91;;;17.71;53.37
74466;BME280;62916;50.044;15.938;2023-12-20T09:35:13;98732.48;;;17.74;53.28
74466;BME280;62916;50.044;15.938;2023-12-20T09:37:45;98727.20;;;17.78;53.33
74466;BME280;62916;50.044;15.938;2023-12-20T09:40:19;98724.35;;;17.82;53.27
74466;BME280;62916;50.044;15.938;2023-12-20T09:42:51;98721.16;;;17.84;53.20
74466;BME280;62916;50.044;15.938;2023-12-20T09:45:26;98723.15;;;17.86;53.19
74466;BME280;62916;50.044;15.938;2023-12-20T09:47:59;98719.20;;;17.90;53.21
74466;BME280;62916;50.044;15.938;2023-12-20T09:50:31;98713.48;;;17.94;53.12
74466;BME280;62916;50.044;15.938;2023-12-20T09:53:03;98702.77;;;17.97;53.06
74466;BME280;62916;50.044;15.938;2023-12-20T09:55:39;98701.85;;;18.01;53.02
74466;BME280;62916;50.044;15.938;2023-12-20T09:58:12;98698.61;;;18.05;53.13
74466;BME280;62916;50.044;15.938;2023-12-20T10:00:43;98697.81;;;18.09;53.06
74466;BME280;62916;50.044;15.938;2023-12-20T10:03:15;98696.42;;;18.12;52.90
74466;BME280;62916;50.044;15.938;2023-12-20T10:05:47;98690.07;;;18.16;52.86
74466;BME280;62916;50.044;15.938;2023-12-20T10:08:22;98691.08;;;18.19;52.92
74466;BME280;62916;50.044;15.938;2023-12-20T10:10:54;98680.10;;;18.22;52.87
74466;BME280;62916;50.044;15.938;2023-12-20T10:13:27;98683.20;;;18.26;52.90
74466;BME280;62916;50.044;15.938;2023-12-20T10:15:59;98682.97;;;18.30;52.84
74466;BME280;62916;50.044;15.938;2023-12-20T10:18:31;98685.27;;;18.33;52.75
74466;BME280;62916;50.044;15.938;2023-12-20T10:21:08;98688.11;;;18.37;52.69
74466;BME280;62916;50.044;15.938;2023-12-20T10:23:40;98685.48;;;18.42;52.75
74466;BME280;62916;50.044;15.938;2023-12-20T10:26:11;98677.45;;;18.47;52.70
74466;BME280;62916;50.044;15.938;2023-12-20T10:28:53;98679.67;;;18.50;52.60
74466;BME280;62916;50.044;15.938;2023-12-20T10:31:31;98680.25;;;18.54;52.52
74466;BME280;62916;50.044;15.938;2023-12-20T10:34:04;98679.63;;;18.58;52.51
74466;BME280;62916;50.044;15.938;2023-12-20T10:36:35;98678.65;;;18.61;52.51
74466;BME280;62916;50.044;15.938;2023-12-20T10:39:09;98672.36;;;18.66;52.48
74466;BME280;62916;50.044;15.938;2023-12-20T10:41:42;98671.97;;;18.70;52.35
74466;BME280;62916;50.044;15.938;2023-12-20T10:44:15;98676.54;;;18.73;52.27
74466;BME280;62916;50.044;15.938;2023-12-20T10:46:46;98675.23;;;18.76;52.33
74466;BME280;62916;50.044;15.938;2023-12-20T10:49:21;98674.48;;;18.80;52.24
74466;BME280;62916;50.044;15.938;2023-12-20T10:51:55;98676.05;;;18.84;52.16
74466;BME280;62916;50.044;15.938;2023-12-20T10:54:28;98674.98;;;18.86;52.10
74466;BME280;62916;50.044;15.938;2023-12-20T10:57:00;98675.60;;;18.89;52.09
74466;BME280;62916;50.044;15.938;2023-12-20T10:59:36;98680.22;;;18.91;52.10
74466;BME280;62916;50.044;15.938;2023-12-20T11:02:07;98677.77;;;18.93;51.99
74466;BME280;62916;50.044;15.938;2023-12-20T11:04:47;98685.95;;;18.96;52.02
74466;BME280;62916;50.044;15.938;2023-12-20T11:07:25;98679.44;;;18.99;51.97
74466;BME280;62916;50.044;15.938;2023-12-20T11:10:03;98678.38;;;19.01;51.81
74466;BME280;62916;50.044;15.938;2023-12-20T11:12:46;98677.44;;;19.04;51.85
74466;BME280;62916;50.044;15.938;2023-12-20T11:15:19;98678.12;;;19.06;51.88
74466;BME280;62916;50.044;15.938;2023-12-20T11:17:58;98682.05;;;19.09;51.78
74466;BME280;62916;50.044;15.938;2023-12-20T11:20:39;98680.98;;;19.11;51.78
74466;BME280;62916;50.044;15.938;2023-12-20T11:23:10;98680.03;;;19.13;51.73
74466;BME280;62916;50.044;15.938;2023-12-20T11:25:55;98676.80;;;19.15;51.81
74466;BME280;62916;50.044;15.938;2023-12-20T11:28:28;98672.60;;;19.17;51.69
74466;BME280;62916;50.044;15.938;2023-12-20T11:31:02;98671.52;;;19.19;51.59
74466;BME280;62916;50.044;15.938;2023-12-20T11:33:40;98660.52;;;19.21;51.60
74466;BME280;62916;50.044;15.938;2023-12-20T11:36:18;98661.03;;;19.23;51.50
74466;BME280;62916;50.044;15.938;2023-12-20T11:38:55;98660.40;;;19.25;51.73
74466;BME280;62916;50.044;15.938;2023-12-20T11:41:27;98653.70;;;19.27;51.56
74466;BME280;62916;50.044;15.938;2023-12-20T11:43:58;98646.02;;;19.29;51.56
74466;BME280;62916;50.044;15.938;2023-12-20T11:46:32;98637.70;;;19.31;51.43
74466;BME280;62916;50.044;15.938;2023-12-20T11:49:04;98631.50;;;19.33;51.39
74466;BME280;62916;50.044;15.938;2023-12-20T11:51:35;98628.95;;;19.35;51.46
74466;BME280;62916;50.044;15.938;2023-12-20T11:54:07;98627.98;;;19.36;51.42
74466;BME280;62916;50.044;15.938;2023-12-20T11:56:39;98628.39;;;19.38;51.45
74466;BME280;62916;50.044;15.938;2023-12-20T11:59:11;98630.54;;;19.37;51.37
74466;BME280;62916;50.044;15.938;2023-12-20T12:01:52;98631.53;;;19.40;51.18
74466;BME280;62916;50.044;15.938;2023-12-20T12:04:26;98625.33;;;19.41;51.31
74466;BME280;62916;50.044;15.938;2023-12-20T12:06:58;98624.84;;;19.42;51.37
74466;BME280;62916;50.044;15.938;2023-12-20T12:09:29;98623.12;;;19.43;51.26
74466;BME280;62916;50.044;15.938;2023-12-20T12:12:00;98624.09;;;19.43;51.19
74466;BME280;62916;50.044;15.938;2023-12-20T12:14:32;98629.16;;;19.44;51.33
74466;BME280;62916;50.044;15.938;2023-12-20T12:17:05;98632.23;;;19.44;51.27
74466;BME280;62916;50.044;15.938;2023-12-20T12:22:20;98621.63;;;19.46;51.24
74466;BME280;62916;50.044;15.938;2023-12-20T12:25:08;98622.91;;;19.46;51.23
74466;BME280;62916;50.044;15.938;2023-12-20T12:27:43;98616.30;;;19.48;51.18
74466;BME280;62916;50.044;15.938;2023-12-20T12:30:17;98617.02;;;19.49;51.11
74466;BME280;62916;50.044;15.938;2023-12-20T12:32:48;98620.39;;;19.49;51.06
74466;BME280;62916;50.044;15.938;2023-12-20T12:35:20;98616.05;;;19.50;51.04
74466;BME280;62916;50.044;15.938;2023-12-20T12:37:52;98614.14;;;19.50;50.96
74466;BME280;62916;50.044;15.938;2023-12-20T12:40:23;98606.98;;;19.50;50.90
74466;BME280;62916;50.044;15.938;2023-12-20T12:42:55;98603.32;;;19.51;50.90
74466;BME280;62916;50.044;15.938;2023-12-20T12:45:26;98601.63;;;19.51;50.90
74466;BME280;62916;50.044;15.938;2023-12-20T12:47:57;98595.11;;;19.50;50.88
74466;BME280;62916;50.044;15.938;2023-12-20T12:50:30;98593.36;;;19.51;50.88
74466;BME280;62916;50.044;15.938;2023-12-20T12:53:01;98583.00;;;19.51;50.91
74466;BME280;62916;50.044;15.938;2023-12-20T12:55:34;98579.64;;;19.51;50.87
74466;BME280;62916;50.044;15.938;2023-12-20T12:58:06;98574.67;;;19.51;50.96
74466;BME280;62916;50.044;15.938;2023-12-20T13:00:37;98575.60;;;19.52;51.09
74466;BME280;62916;50.044;15.938;2023-12-20T13:03:08;98578.55;;;19.53;50.96
74466;BME280;62916;50.044;15.938;2023-12-20T13:05:39;98579.81;;;19.54;51.02
74466;BME280;62916;50.044;15.938;2023-12-20T13:08:14;98583.60;;;19.55;51.00
74466;BME280;62916;50.044;15.938;2023-12-20T13:10:46;98587.23;;;19.56;50.94
74466;BME280;62916;50.044;15.938;2023-12-20T13:13:17;98588.27;;;19.55;50.91
74466;BME280;62916;50.044;15.938;2023-12-20T13:15:48;98588.60;;;19.55;50.87
74466;BME280;62916;50.044;15.938;2023-12-20T13:18:24;98588.73;;;19.55;51.00
74466;BME280;62916;50.044;15.938;2023-12-20T13:20:55;98585.75;;;19.54;50.90